イルクーツク の空港の天気 - METARとTAF

イルクーツク国際空港 ( UIII / IKT ) - ロシア イルクーツク
飛行場実況気象(Metar)
観測時間10/16 15:30 IRKT (10/16 07:30 UTC)
風向・風速南 3m/s
視程10km以上
天気現象
なし
気温14℃
湿度47%
気圧1014hPa
METARUIII 160730Z 17003MPS CAVOK 14/03 Q1014 R12/60D NOSIG RMK QFE718/0957
過去の天気等 Google飛行場航空写真 Wunderground天気予報

過去48時間のMETAR

飛行場予報(TAF)
発表時間: 10/16 13:00 IRKT (10/16 05:00 UTC)
予報対象時間: 16日14時 IRKT ~ 17日14時 IRKT
風向・風速南南東 5m/s
視程10km以上
なし
TAF UIII 160500Z 1606/1706 16005MPS CAVOK